sensor_id;sensor_type;location;lat;lon;timestamp;temperature;humidity
38684;DHT22;24910;53.248;-6.134;2023-09-08T00:00:11;20.60;84.50
38684;DHT22;24910;53.248;-6.134;2023-09-08T00:02:40;20.50;84.50
38684;DHT22;24910;53.248;-6.134;2023-09-08T00:05:09;20.50;84.50
38684;DHT22;24910;53.248;-6.134;2023-09-08T00:07:38;20.50;84.50
38684;DHT22;24910;53.248;-6.134;2023-09-08T00:10:07;20.50;84.60
38684;DHT22;24910;53.248;-6.134;2023-09-08T00:12:39;20.50;84.60
38684;DHT22;24910;53.248;-6.134;2023-09-08T00:15:09;20.50;84.60
38684;DHT22;24910;53.248;-6.134;2023-09-08T00:17:38;20.50;84.70
38684;DHT22;24910;53.248;-6.134;2023-09-08T00:20:08;20.40;84.60
38684;DHT22;24910;53.248;-6.134;2023-09-08T00:22:38;20.40;84.60
38684;DHT22;24910;53.248;-6.134;2023-09-08T00:25:07;20.40;84.60
38684;DHT22;24910;53.248;-6.134;2023-09-08T00:27:36;20.40;84.60
38684;DHT22;24910;53.248;-6.134;2023-09-08T00:30:08;20.40;84.60
38684;DHT22;24910;53.248;-6.134;2023-09-08T00:32:37;20.40;84.70
38684;DHT22;24910;53.248;-6.134;2023-09-08T00:35:11;20.40;84.80
38684;DHT22;24910;53.248;-6.134;2023-09-08T00:37:40;20.40;84.80
38684;DHT22;24910;53.248;-6.134;2023-09-08T00:40:10;20.30;84.80
38684;DHT22;24910;53.248;-6.134;2023-09-08T00:42:39;20.30;85.70
38684;DHT22;24910;53.248;-6.134;2023-09-08T00:45:10;20.40;84.90
38684;DHT22;24910;53.248;-6.134;2023-09-08T00:47:39;20.40;84.90
38684;DHT22;24910;53.248;-6.134;2023-09-08T00:50:09;20.30;84.90
38684;DHT22;24910;53.248;-6.134;2023-09-08T00:52:38;20.30;85.00
38684;DHT22;24910;53.248;-6.134;2023-09-08T00:55:08;20.30;85.00
38684;DHT22;24910;53.248;-6.134;2023-09-08T00:57:37;20.30;85.10
38684;DHT22;24910;53.248;-6.134;2023-09-08T01:00:08;20.30;85.10
38684;DHT22;24910;53.248;-6.134;2023-09-08T01:02:38;20.30;85.00
38684;DHT22;24910;53.248;-6.134;2023-09-08T01:05:08;20.30;85.10
38684;DHT22;24910;53.248;-6.134;2023-09-08T01:07:37;20.30;85.00
38684;DHT22;24910;53.248;-6.134;2023-09-08T01:10:07;20.30;85.00
38684;DHT22;24910;53.248;-6.134;2023-09-08T01:12:36;20.30;85.00
38684;DHT22;24910;53.248;-6.134;2023-09-08T01:15:06;20.30;85.10
38684;DHT22;24910;53.248;-6.134;2023-09-08T01:17:35;20.20;85.10
38684;DHT22;24910;53.248;-6.134;2023-09-08T01:20:11;20.20;85.10
38684;DHT22;24910;53.248;-6.134;2023-09-08T01:22:55;20.20;85.10
38684;DHT22;24910;53.248;-6.134;2023-09-08T01:25:31;20.20;85.20
38684;DHT22;24910;53.248;-6.134;2023-09-08T01:28:02;20.20;85.10
38684;DHT22;24910;53.248;-6.134;2023-09-08T01:30:33;20.20;85.10
38684;DHT22;24910;53.248;-6.134;2023-09-08T01:33:05;20.20;85.10
38684;DHT22;24910;53.248;-6.134;2023-09-08T01:35:34;20.20;85.10
38684;DHT22;24910;53.248;-6.134;2023-09-08T01:38:04;20.20;85.20
38684;DHT22;24910;53.248;-6.134;2023-09-08T01:40:34;20.20;85.10
38684;DHT22;24910;53.248;-6.134;2023-09-08T01:43:04;20.20;85.10
38684;DHT22;24910;53.248;-6.134;2023-09-08T01:45:33;20.20;85.10
38684;DHT22;24910;53.248;-6.134;2023-09-08T01:48:04;20.20;85.10
38684;DHT22;24910;53.248;-6.134;2023-09-08T01:50:33;20.10;85.10
38684;DHT22;24910;53.248;-6.134;2023-09-08T01:53:02;20.10;85.10
38684;DHT22;24910;53.248;-6.134;2023-09-08T01:55:31;20.10;85.30
38684;DHT22;24910;53.248;-6.134;2023-09-08T01:58:01;20.10;85.20
38684;DHT22;24910;53.248;-6.134;2023-09-08T02:00:31;20.10;85.20
38684;DHT22;24910;53.248;-6.134;2023-09-08T02:03:00;20.00;85.20
38684;DHT22;24910;53.248;-6.134;2023-09-08T02:05:29;20.10;85.30
38684;DHT22;24910;53.248;-6.134;2023-09-08T02:07:58;20.00;85.30
38684;DHT22;24910;53.248;-6.134;2023-09-08T02:10:30;20.00;85.30
38684;DHT22;24910;53.248;-6.134;2023-09-08T02:13:01;20.00;85.30
38684;DHT22;24910;53.248;-6.134;2023-09-08T02:15:30;20.00;85.20
38684;DHT22;24910;53.248;-6.134;2023-09-08T02:17:59;20.00;85.20
38684;DHT22;24910;53.248;-6.134;2023-09-08T02:20:29;20.00;85.30
38684;DHT22;24910;53.248;-6.134;2023-09-08T02:23:03;20.00;85.30
38684;DHT22;24910;53.248;-6.134;2023-09-08T02:25:33;20.00;85.30
38684;DHT22;24910;53.248;-6.134;2023-09-08T02:28:04;20.00;85.40
38684;DHT22;24910;53.248;-6.134;2023-09-08T02:30:33;20.00;85.30
38684;DHT22;24910;53.248;-6.134;2023-09-08T02:33:03;19.90;85.30
38684;DHT22;24910;53.248;-6.134;2023-09-08T02:35:37;20.00;85.10
38684;DHT22;24910;53.248;-6.134;2023-09-08T02:38:08;20.00;85.10
38684;DHT22;24910;53.248;-6.134;2023-09-08T02:40:37;20.00;85.10
38684;DHT22;24910;53.248;-6.134;2023-09-08T02:43:08;20.00;85.10
38684;DHT22;24910;53.248;-6.134;2023-09-08T02:45:37;20.00;85.20
38684;DHT22;24910;53.248;-6.134;2023-09-08T02:48:06;20.00;85.20
38684;DHT22;24910;53.248;-6.134;2023-09-08T02:50:35;19.90;85.20
38684;DHT22;24910;53.248;-6.134;2023-09-08T02:53:04;19.90;85.30
38684;DHT22;24910;53.248;-6.134;2023-09-08T02:55:34;19.90;85.40
38684;DHT22;24910;53.248;-6.134;2023-09-08T02:58:03;19.90;85.30
38684;DHT22;24910;53.248;-6.134;2023-09-08T03:00:34;19.90;85.30
38684;DHT22;24910;53.248;-6.134;2023-09-08T03:03:04;19.90;85.30
38684;DHT22;24910;53.248;-6.134;2023-09-08T03:05:34;19.90;85.30
38684;DHT22;24910;53.248;-6.134;2023-09-08T03:08:03;19.90;85.20
38684;DHT22;24910;53.248;-6.134;2023-09-08T03:10:33;19.90;85.10
38684;DHT22;24910;53.248;-6.134;2023-09-08T03:13:04;19.90;85.10
38684;DHT22;24910;53.248;-6.134;2023-09-08T03:15:35;19.90;85.10
38684;DHT22;24910;53.248;-6.134;2023-09-08T03:18:05;19.90;85.10
38684;DHT22;24910;53.248;-6.134;2023-09-08T03:20:34;19.90;85.00
38684;DHT22;24910;53.248;-6.134;2023-09-08T03:23:04;19.90;85.00
38684;DHT22;24910;53.248;-6.134;2023-09-08T03:25:33;19.90;85.10
38684;DHT22;24910;53.248;-6.134;2023-09-08T03:28:02;19.90;85.10
38684;DHT22;24910;53.248;-6.134;2023-09-08T03:30:31;19.90;85.10
38684;DHT22;24910;53.248;-6.134;2023-09-08T03:33:02;19.90;85.20
38684;DHT22;24910;53.248;-6.134;2023-09-08T03:35:31;19.90;85.10
38684;DHT22;24910;53.248;-6.134;2023-09-08T03:38:00;19.90;85.10
38684;DHT22;24910;53.248;-6.134;2023-09-08T03:40:29;19.90;85.10
38684;DHT22;24910;53.248;-6.134;2023-09-08T03:42:59;19.90;85.10
38684;DHT22;24910;53.248;-6.134;2023-09-08T03:45:28;19.90;85.10
38684;DHT22;24910;53.248;-6.134;2023-09-08T03:47:57;19.90;85.10
38684;DHT22;24910;53.248;-6.134;2023-09-08T03:50:27;19.90;85.20
38684;DHT22;24910;53.248;-6.134;2023-09-08T03:52:57;19.90;85.20
38684;DHT22;24910;53.248;-6.134;2023-09-08T03:55:26;19.90;85.20
38684;DHT22;24910;53.248;-6.134;2023-09-08T03:57:55;19.90;85.20
38684;DHT22;24910;53.248;-6.134;2023-09-08T04:00:26;19.90;85.30
38684;DHT22;24910;53.248;-6.134;2023-09-08T04:02:55;19.90;85.30
38684;DHT22;24910;53.248;-6.134;2023-09-08T04:05:24;19.90;85.40
38684;DHT22;24910;53.248;-6.134;2023-09-08T04:07:55;19.80;85.40
38684;DHT22;24910;53.248;-6.134;2023-09-08T04:10:24;19.80;85.50
38684;DHT22;24910;53.248;-6.134;2023-09-08T04:12:53;19.80;85.50
38684;DHT22;24910;53.248;-6.134;2023-09-08T04:15:22;19.80;85.60
38684;DHT22;24910;53.248;-6.134;2023-09-08T04:17:51;19.80;85.60
38684;DHT22;24910;53.248;-6.134;2023-09-08T04:20:20;19.80;85.60
38684;DHT22;24910;53.248;-6.134;2023-09-08T04:22:50;19.90;85.70
38684;DHT22;24910;53.248;-6.134;2023-09-08T04:25:20;19.80;85.70
38684;DHT22;24910;53.248;-6.134;2023-09-08T04:27:49;19.80;85.70
38684;DHT22;24910;53.248;-6.134;2023-09-08T04:30:18;19.80;85.80
38684;DHT22;24910;53.248;-6.134;2023-09-08T04:32:49;19.80;85.80
38684;DHT22;24910;53.248;-6.134;2023-09-08T04:35:18;19.80;85.80
38684;DHT22;24910;53.248;-6.134;2023-09-08T04:37:47;19.80;85.80
38684;DHT22;24910;53.248;-6.134;2023-09-08T04:40:16;19.80;85.80
38684;DHT22;24910;53.248;-6.134;2023-09-08T04:42:47;19.80;85.80
38684;DHT22;24910;53.248;-6.134;2023-09-08T04:45:16;19.80;85.90
38684;DHT22;24910;53.248;-6.134;2023-09-08T04:47:45;19.80;85.90
38684;DHT22;24910;53.248;-6.134;2023-09-08T04:50:17;19.80;85.80
38684;DHT22;24910;53.248;-6.134;2023-09-08T04:52:47;19.80;85.90
38684;DHT22;24910;53.248;-6.134;2023-09-08T04:55:17;19.80;85.90
38684;DHT22;24910;53.248;-6.134;2023-09-08T04:57:49;19.70;85.90
38684;DHT22;24910;53.248;-6.134;2023-09-08T05:00:18;19.70;86.00
38684;DHT22;24910;53.248;-6.134;2023-09-08T05:02:47;19.70;85.90
38684;DHT22;24910;53.248;-6.134;2023-09-08T05:05:16;19.70;85.90
38684;DHT22;24910;53.248;-6.134;2023-09-08T05:07:46;19.70;85.90
38684;DHT22;24910;53.248;-6.134;2023-09-08T05:10:15;19.70;85.90
38684;DHT22;24910;53.248;-6.134;2023-09-08T05:12:44;19.70;85.90
38684;DHT22;24910;53.248;-6.134;2023-09-08T05:15:15;19.70;85.90
38684;DHT22;24910;53.248;-6.134;2023-09-08T05:17:48;19.70;85.90
38684;DHT22;24910;53.248;-6.134;2023-09-08T05:20:20;19.70;85.90
38684;DHT22;24910;53.248;-6.134;2023-09-08T05:22:49;19.70;85.90
38684;DHT22;24910;53.248;-6.134;2023-09-08T05:25:18;19.70;86.00
38684;DHT22;24910;53.248;-6.134;2023-09-08T05:27:47;19.70;86.00
38684;DHT22;24910;53.248;-6.134;2023-09-08T05:30:18;19.70;86.10
38684;DHT22;24910;53.248;-6.134;2023-09-08T05:32:48;19.70;86.10
38684;DHT22;24910;53.248;-6.134;2023-09-08T05:35:17;19.70;86.20
38684;DHT22;24910;53.248;-6.134;2023-09-08T05:37:47;19.70;86.20
38684;DHT22;24910;53.248;-6.134;2023-09-08T05:40:16;19.70;86.20
38684;DHT22;24910;53.248;-6.134;2023-09-08T05:42:46;19.70;86.30
38684;DHT22;24910;53.248;-6.134;2023-09-08T05:45:17;19.60;86.20
38684;DHT22;24910;53.248;-6.134;2023-09-08T05:47:47;19.70;86.30
38684;DHT22;24910;53.248;-6.134;2023-09-08T05:50:19;19.70;86.20
38684;DHT22;24910;53.248;-6.134;2023-09-08T05:52:48;19.70;86.20
38684;DHT22;24910;53.248;-6.134;2023-09-08T05:55:21;19.70;86.20
38684;DHT22;24910;53.248;-6.134;2023-09-08T05:57:50;19.70;86.20
38684;DHT22;24910;53.248;-6.134;2023-09-08T06:00:21;19.60;86.30
38684;DHT22;24910;53.248;-6.134;2023-09-08T06:02:52;19.60;86.40
38684;DHT22;24910;53.248;-6.134;2023-09-08T06:05:21;19.70;86.40
38684;DHT22;24910;53.248;-6.134;2023-09-08T06:07:50;19.70;86.40
38684;DHT22;24910;53.248;-6.134;2023-09-08T06:10:36;19.70;86.50
38684;DHT22;24910;53.248;-6.134;2023-09-08T06:13:05;19.70;86.40
38684;DHT22;24910;53.248;-6.134;2023-09-08T06:15:37;19.70;86.40
38684;DHT22;24910;53.248;-6.134;2023-09-08T06:18:07;19.70;86.30
38684;DHT22;24910;53.248;-6.134;2023-09-08T06:20:36;19.70;86.30
38684;DHT22;24910;53.248;-6.134;2023-09-08T06:23:05;19.70;86.40
38684;DHT22;24910;53.248;-6.134;2023-09-08T06:25:34;19.70;86.30
38684;DHT22;24910;53.248;-6.134;2023-09-08T06:28:04;19.70;86.30
38684;DHT22;24910;53.248;-6.134;2023-09-08T06:30:34;19.70;86.40
38684;DHT22;24910;53.248;-6.134;2023-09-08T06:33:04;19.80;86.40
38684;DHT22;24910;53.248;-6.134;2023-09-08T06:35:35;19.80;86.30
38684;DHT22;24910;53.248;-6.134;2023-09-08T06:38:04;19.90;86.30
38684;DHT22;24910;53.248;-6.134;2023-09-08T06:40:33;19.90;86.20
38684;DHT22;24910;53.248;-6.134;2023-09-08T06:43:03;19.90;86.10
38684;DHT22;24910;53.248;-6.134;2023-09-08T06:45:47;20.00;86.10
38684;DHT22;24910;53.248;-6.134;2023-09-08T06:48:19;20.00;86.00
38684;DHT22;24910;53.248;-6.134;2023-09-08T06:50:49;20.10;86.00
38684;DHT22;24910;53.248;-6.134;2023-09-08T06:53:23;20.20;86.00
38684;DHT22;24910;53.248;-6.134;2023-09-08T06:55:53;20.20;86.00
38684;DHT22;24910;53.248;-6.134;2023-09-08T06:58:22;20.20;85.90
38684;DHT22;24910;53.248;-6.134;2023-09-08T07:00:51;20.30;85.90
38684;DHT22;24910;53.248;-6.134;2023-09-08T07:03:24;20.30;85.90
38684;DHT22;24910;53.248;-6.134;2023-09-08T07:05:56;20.20;85.90
38684;DHT22;24910;53.248;-6.134;2023-09-08T07:08:25;20.30;86.00
38684;DHT22;24910;53.248;-6.134;2023-09-08T07:10:55;20.30;85.90
38684;DHT22;24910;53.248;-6.134;2023-09-08T07:13:24;20.40;85.90
38684;DHT22;24910;53.248;-6.134;2023-09-08T07:15:53;20.50;86.00
38684;DHT22;24910;53.248;-6.134;2023-09-08T07:18:24;20.60;85.90
38684;DHT22;24910;53.248;-6.134;2023-09-08T07:20:54;20.70;85.80
38684;DHT22;24910;53.248;-6.134;2023-09-08T07:23:24;20.80;85.80
38684;DHT22;24910;53.248;-6.134;2023-09-08T07:25:53;20.90;85.80
38684;DHT22;24910;53.248;-6.134;2023-09-08T07:28:25;21.00;85.70
38684;DHT22;24910;53.248;-6.134;2023-09-08T07:31:01;21.10;85.60
38684;DHT22;24910;53.248;-6.134;2023-09-08T07:33:33;21.20;86.40
38684;DHT22;24910;53.248;-6.134;2023-09-08T07:36:06;21.40;85.50
38684;DHT22;24910;53.248;-6.134;2023-09-08T07:38:37;21.50;85.40
38684;DHT22;24910;53.248;-6.134;2023-09-08T07:41:07;21.60;85.40
38684;DHT22;24910;53.248;-6.134;2023-09-08T07:43:36;21.70;85.40
38684;DHT22;24910;53.248;-6.134;2023-09-08T07:46:10;21.70;85.50
38684;DHT22;24910;53.248;-6.134;2023-09-08T07:48:41;21.90;85.30
38684;DHT22;24910;53.248;-6.134;2023-09-08T07:51:10;22.00;85.40
38684;DHT22;24910;53.248;-6.134;2023-09-08T07:53:39;22.00;85.40
38684;DHT22;24910;53.248;-6.134;2023-09-08T07:56:08;22.00;85.70
38684;DHT22;24910;53.248;-6.134;2023-09-08T07:58:37;22.00;85.60
38684;DHT22;24910;53.248;-6.134;2023-09-08T08:01:07;22.10;85.80
38684;DHT22;24910;53.248;-6.134;2023-09-08T08:03:36;22.10;85.90
38684;DHT22;24910;53.248;-6.134;2023-09-08T08:06:07;22.10;86.00
38684;DHT22;24910;53.248;-6.134;2023-09-08T08:08:36;22.20;86.00
38684;DHT22;24910;53.248;-6.134;2023-09-08T08:11:10;22.30;86.00
38684;DHT22;24910;53.248;-6.134;2023-09-08T08:13:40;22.40;86.00
38684;DHT22;24910;53.248;-6.134;2023-09-08T08:16:09;22.40;85.90
38684;DHT22;24910;53.248;-6.134;2023-09-08T08:18:38;22.50;85.90
38684;DHT22;24910;53.248;-6.134;2023-09-08T08:21:09;22.50;85.90
38684;DHT22;24910;53.248;-6.134;2023-09-08T08:23:38;22.70;85.80
38684;DHT22;24910;53.248;-6.134;2023-09-08T08:26:07;22.70;85.60
38684;DHT22;24910;53.248;-6.134;2023-09-08T08:28:36;22.80;85.50
38684;DHT22;24910;53.248;-6.134;2023-09-08T08:31:05;23.00;85.40
38684;DHT22;24910;53.248;-6.134;2023-09-08T08:33:35;23.10;85.40
38684;DHT22;24910;53.248;-6.134;2023-09-08T08:36:04;23.20;85.30
38684;DHT22;24910;53.248;-6.134;2023-09-08T08:38:36;23.20;85.10
38684;DHT22;24910;53.248;-6.134;2023-09-08T08:41:05;23.30;85.00
38684;DHT22;24910;53.248;-6.134;2023-09-08T08:43:34;23.40;85.00
38684;DHT22;24910;53.248;-6.134;2023-09-08T08:46:04;23.50;85.00
38684;DHT22;24910;53.248;-6.134;2023-09-08T08:48:34;23.50;84.90
38684;DHT22;24910;53.248;-6.134;2023-09-08T08:51:05;23.60;84.90
38684;DHT22;24910;53.248;-6.134;2023-09-08T08:53:39;23.70;84.80
38684;DHT22;24910;53.248;-6.134;2023-09-08T08:56:10;23.80;84.70
38684;DHT22;24910;53.248;-6.134;2023-09-08T08:58:39;23.80;84.60
38684;DHT22;24910;53.248;-6.134;2023-09-08T09:01:11;23.90;84.60
38684;DHT22;24910;53.248;-6.134;2023-09-08T09:03:41;24.00;84.50
38684;DHT22;24910;53.248;-6.134;2023-09-08T09:06:11;24.00;84.20
38684;DHT22;24910;53.248;-6.134;2023-09-08T09:08:43;24.20;84.20
38684;DHT22;24910;53.248;-6.134;2023-09-08T09:11:12;24.30;84.00
38684;DHT22;24910;53.248;-6.134;2023-09-08T09:13:41;24.40;84.10
38684;DHT22;24910;53.248;-6.134;2023-09-08T09:16:11;24.50;83.70
38684;DHT22;24910;53.248;-6.134;2023-09-08T09:18:54;24.60;83.60
38684;DHT22;24910;53.248;-6.134;2023-09-08T09:21:24;24.60;83.60
38684;DHT22;24910;53.248;-6.134;2023-09-08T09:24:15;24.60;83.50
38684;DHT22;24910;53.248;-6.134;2023-09-08T09:26:51;24.70;83.50
38684;DHT22;24910;53.248;-6.134;2023-09-08T09:29:21;24.70;83.60
38684;DHT22;24910;53.248;-6.134;2023-09-08T09:31:51;24.70;83.60
38684;DHT22;24910;53.248;-6.134;2023-09-08T09:34:21;24.70;83.60
38684;DHT22;24910;53.248;-6.134;2023-09-08T09:36:51;24.70;83.60
38684;DHT22;24910;53.248;-6.134;2023-09-08T09:39:23;24.80;83.50
38684;DHT22;24910;53.248;-6.134;2023-09-08T09:41:54;24.80;83.50
38684;DHT22;24910;53.248;-6.134;2023-09-08T09:44:24;24.80;83.50
38684;DHT22;24910;53.248;-6.134;2023-09-08T09:46:54;24.90;83.50
38684;DHT22;24910;53.248;-6.134;2023-09-08T09:49:23;24.90;83.30
38684;DHT22;24910;53.248;-6.134;2023-09-08T09:51:54;24.80;83.30
38684;DHT22;24910;53.248;-6.134;2023-09-08T09:54:25;24.80;83.30
38684;DHT22;24910;53.248;-6.134;2023-09-08T09:56:54;24.90;83.30
38684;DHT22;24910;53.248;-6.134;2023-09-08T09:59:23;24.90;83.20
38684;DHT22;24910;53.248;-6.134;2023-09-08T10:01:53;24.90;83.20
38684;DHT22;24910;53.248;-6.134;2023-09-08T10:04:23;24.90;83.30
38684;DHT22;24910;53.248;-6.134;2023-09-08T10:06:53;24.80;83.20
38684;DHT22;24910;53.248;-6.134;2023-09-08T10:09:26;24.80;83.50
38684;DHT22;24910;53.248;-6.134;2023-09-08T10:11:58;24.90;83.30
38684;DHT22;24910;53.248;-6.134;2023-09-08T10:14:31;24.80;83.20
38684;DHT22;24910;53.248;-6.134;2023-09-08T10:17:05;24.90;83.30
38684;DHT22;24910;53.248;-6.134;2023-09-08T10:19:37;24.90;83.30
38684;DHT22;24910;53.248;-6.134;2023-09-08T10:22:15;24.80;83.20
38684;DHT22;24910;53.248;-6.134;2023-09-08T10:24:50;24.80;83.20
38684;DHT22;24910;53.248;-6.134;2023-09-08T10:27:21;24.90;83.30
38684;DHT22;24910;53.248;-6.134;2023-09-08T10:29:52;24.90;83.20
38684;DHT22;24910;53.248;-6.134;2023-09-08T10:32:22;24.90;83.10
38684;DHT22;24910;53.248;-6.134;2023-09-08T10:34:52;24.90;83.00
38684;DHT22;24910;53.248;-6.134;2023-09-08T10:37:26;24.90;82.90
38684;DHT22;24910;53.248;-6.134;2023-09-08T10:40:22;25.00;82.80
38684;DHT22;24910;53.248;-6.134;2023-09-08T10:43:06;25.00;82.70
38684;DHT22;24910;53.248;-6.134;2023-09-08T10:45:39;25.00;82.70
38684;DHT22;24910;53.248;-6.134;2023-09-08T10:48:09;25.00;82.70
38684;DHT22;24910;53.248;-6.134;2023-09-08T10:50:40;25.10;82.80
38684;DHT22;24910;53.248;-6.134;2023-09-08T10:53:14;25.20;82.60
38684;DHT22;24910;53.248;-6.134;2023-09-08T10:55:47;25.10;82.40
38684;DHT22;24910;53.248;-6.134;2023-09-08T10:58:38;25.10;82.50
38684;DHT22;24910;53.248;-6.134;2023-09-08T11:01:13;25.00;82.60
38684;DHT22;24910;53.248;-6.134;2023-09-08T11:03:46;25.00;82.70
38684;DHT22;24910;53.248;-6.134;2023-09-08T11:06:19;25.00;82.70
38684;DHT22;24910;53.248;-6.134;2023-09-08T11:08:50;24.90;82.60
38684;DHT22;24910;53.248;-6.134;2023-09-08T11:11:25;24.90;82.50
38684;DHT22;24910;53.248;-6.134;2023-09-08T11:13:54;25.00;82.50
38684;DHT22;24910;53.248;-6.134;2023-09-08T11:16:24;24.90;82.50
38684;DHT22;24910;53.248;-6.134;2023-09-08T11:18:57;24.80;82.60
38684;DHT22;24910;53.248;-6.134;2023-09-08T11:21:26;24.70;82.60
38684;DHT22;24910;53.248;-6.134;2023-09-08T11:24:02;24.60;82.60
38684;DHT22;24910;53.248;-6.134;2023-09-08T11:26:34;24.60;82.60
38684;DHT22;24910;53.248;-6.134;2023-09-08T11:29:03;24.60;82.60
38684;DHT22;24910;53.248;-6.134;2023-09-08T11:31:32;24.60;82.60
38684;DHT22;24910;53.248;-6.134;2023-09-08T11:34:04;24.60;82.20
38684;DHT22;24910;53.248;-6.134;2023-09-08T11:36:35;24.60;82.20
38684;DHT22;24910;53.248;-6.134;2023-09-08T11:39:05;24.60;82.30
38684;DHT22;24910;53.248;-6.134;2023-09-08T11:41:36;24.50;82.30
38684;DHT22;24910;53.248;-6.134;2023-09-08T11:44:05;24.50;82.30
38684;DHT22;24910;53.248;-6.134;2023-09-08T11:46:34;24.50;82.30
38684;DHT22;24910;53.248;-6.134;2023-09-08T11:49:04;24.50;82.30
38684;DHT22;24910;53.248;-6.134;2023-09-08T11:51:33;24.40;82.30
38684;DHT22;24910;53.248;-6.134;2023-09-08T11:54:03;24.40;82.40
38684;DHT22;24910;53.248;-6.134;2023-09-08T11:56:32;24.40;82.50
38684;DHT22;24910;53.248;-6.134;2023-09-08T11:59:04;24.40;82.40
38684;DHT22;24910;53.248;-6.134;2023-09-08T12:01:33;24.40;82.30
38684;DHT22;24910;53.248;-6.134;2023-09-08T12:04:03;24.50;82.20
38684;DHT22;24910;53.248;-6.134;2023-09-08T12:06:32;24.50;82.20
38684;DHT22;24910;53.248;-6.134;2023-09-08T12:09:01;24.50;82.10
38684;DHT22;24910;53.248;-6.134;2023-09-08T12:11:34;24.50;82.10
38684;DHT22;24910;53.248;-6.134;2023-09-08T12:14:07;24.50;82.20
38684;DHT22;24910;53.248;-6.134;2023-09-08T12:16:36;24.60;82.10
38684;DHT22;24910;53.248;-6.134;2023-09-08T12:19:05;24.60;81.90
38684;DHT22;24910;53.248;-6.134;2023-09-08T12:21:54;24.60;82.00
38684;DHT22;24910;53.248;-6.134;2023-09-08T12:24:56;24.50;82.00
38684;DHT22;24910;53.248;-6.134;2023-09-08T12:27:26;24.50;82.20
38684;DHT22;24910;53.248;-6.134;2023-09-08T12:29:58;24.40;82.20
38684;DHT22;24910;53.248;-6.134;2023-09-08T12:32:30;24.40;82.30
38684;DHT22;24910;53.248;-6.134;2023-09-08T12:35:00;24.40;82.40
38684;DHT22;24910;53.248;-6.134;2023-09-08T12:37:33;24.30;82.40
38684;DHT22;24910;53.248;-6.134;2023-09-08T12:40:03;24.30;82.40
38684;DHT22;24910;53.248;-6.134;2023-09-08T12:42:32;24.30;82.50
38684;DHT22;24910;53.248;-6.134;2023-09-08T12:45:12;24.30;82.50
38684;DHT22;24910;53.248;-6.134;2023-09-08T12:47:42;24.20;82.50
38684;DHT22;24910;53.248;-6.134;2023-09-08T12:50:12;24.20;83.50
38684;DHT22;24910;53.248;-6.134;2023-09-08T12:52:41;24.20;82.50
38684;DHT22;24910;53.248;-6.134;2023-09-08T12:55:10;24.20;82.50
38684;DHT22;24910;53.248;-6.134;2023-09-08T12:57:39;24.20;82.50
38684;DHT22;24910;53.248;-6.134;2023-09-08T13:00:09;24.20;83.60
38684;DHT22;24910;53.248;-6.134;2023-09-08T13:02:41;24.10;82.70
38684;DHT22;24910;53.248;-6.134;2023-09-08T13:05:10;24.20;82.70
38684;DHT22;24910;53.248;-6.134;2023-09-08T13:07:39;24.20;82.60
38684;DHT22;24910;53.248;-6.134;2023-09-08T13:10:09;24.10;82.50
38684;DHT22;24910;53.248;-6.134;2023-09-08T13:12:38;24.10;82.80
38684;DHT22;24910;53.248;-6.134;2023-09-08T13:15:08;24.10;82.80
38684;DHT22;24910;53.248;-6.134;2023-09-08T13:17:38;24.00;82.80
38684;DHT22;24910;53.248;-6.134;2023-09-08T13:20:09;24.00;82.80
38684;DHT22;24910;53.248;-6.134;2023-09-08T13:22:40;24.00;82.80
38684;DHT22;24910;53.248;-6.134;2023-09-08T13:25:09;24.00;82.80
38684;DHT22;24910;53.248;-6.134;2023-09-08T13:27:40;23.90;82.90
38684;DHT22;24910;53.248;-6.134;2023-09-08T13:30:11;23.90;82.90
38684;DHT22;24910;53.248;-6.134;2023-09-08T13:32:40;23.90;82.80
38684;DHT22;24910;53.248;-6.134;2023-09-08T13:35:11;23.90;82.80
38684;DHT22;24910;53.248;-6.134;2023-09-08T13:37:41;23.90;82.80
38684;DHT22;24910;53.248;-6.134;2023-09-08T13:40:10;24.00;82.80
38684;DHT22;24910;53.248;-6.134;2023-09-08T13:42:41;23.90;82.70
38684;DHT22;24910;53.248;-6.134;2023-09-08T13:45:10;23.90;82.90
38684;DHT22;24910;53.248;-6.134;2023-09-08T13:47:39;23.90;82.70
38684;DHT22;24910;53.248;-6.134;2023-09-08T13:50:11;24.00;82.70
38684;DHT22;24910;53.248;-6.134;2023-09-08T13:52:41;24.00;82.60
38684;DHT22;24910;53.248;-6.134;2023-09-08T13:55:14;24.10;82.60
38684;DHT22;24910;53.248;-6.134;2023-09-08T13:57:46;24.10;82.60
38684;DHT22;24910;53.248;-6.134;2023-09-08T14:00:17;24.10;82.50
38684;DHT22;24910;53.248;-6.134;2023-09-08T14:02:51;24.10;82.60
38684;DHT22;24910;53.248;-6.134;2023-09-08T14:05:25;24.10;82.50
38684;DHT22;24910;53.248;-6.134;2023-09-08T14:08:02;24.10;82.50
38684;DHT22;24910;53.248;-6.134;2023-09-08T14:10:42;24.10;82.40
38684;DHT22;24910;53.248;-6.134;2023-09-08T14:13:24;24.10;82.50
38684;DHT22;24910;53.248;-6.134;2023-09-08T14:15:54;24.00;82.50
38684;DHT22;24910;53.248;-6.134;2023-09-08T14:18:24;24.00;82.60
38684;DHT22;24910;53.248;-6.134;2023-09-08T14:20:55;24.00;82.70
38684;DHT22;24910;53.248;-6.134;2023-09-08T14:23:24;23.90;82.80
38684;DHT22;24910;53.248;-6.134;2023-09-08T14:25:53;23.90;82.90
38684;DHT22;24910;53.248;-6.134;2023-09-08T14:28:22;23.80;82.90
38684;DHT22;24910;53.248;-6.134;2023-09-08T14:30:52;23.80;83.10
38684;DHT22;24910;53.248;-6.134;2023-09-08T14:33:22;23.70;83.20
38684;DHT22;24910;53.248;-6.134;2023-09-08T14:35:51;23.70;83.20
38684;DHT22;24910;53.248;-6.134;2023-09-08T14:38:23;23.60;83.20
38684;DHT22;24910;53.248;-6.134;2023-09-08T14:40:57;23.60;83.30
38684;DHT22;24910;53.248;-6.134;2023-09-08T14:43:27;23.60;83.30
38684;DHT22;24910;53.248;-6.134;2023-09-08T14:45:56;23.50;83.30
38684;DHT22;24910;53.248;-6.134;2023-09-08T14:48:25;23.50;83.40
38684;DHT22;24910;53.248;-6.134;2023-09-08T14:50:56;23.60;83.30
38684;DHT22;24910;53.248;-6.134;2023-09-08T14:53:26;23.60;83.20
38684;DHT22;24910;53.248;-6.134;2023-09-08T14:55:57;23.60;83.20
38684;DHT22;24910;53.248;-6.134;2023-09-08T14:58:26;23.60;83.10
38684;DHT22;24910;53.248;-6.134;2023-09-08T15:01:01;23.60;83.10
38684;DHT22;24910;53.248;-6.134;2023-09-08T15:03:31;23.60;83.10
38684;DHT22;24910;53.248;-6.134;2023-09-08T15:06:01;23.60;83.00
38684;DHT22;24910;53.248;-6.134;2023-09-08T15:08:33;23.70;82.90
38684;DHT22;24910;53.248;-6.134;2023-09-08T15:11:02;23.60;83.00
38684;DHT22;24910;53.248;-6.134;2023-09-08T15:13:31;23.60;83.00
38684;DHT22;24910;53.248;-6.134;2023-09-08T15:16:01;23.60;82.90
38684;DHT22;24910;53.248;-6.134;2023-09-08T15:18:30;23.60;82.90
38684;DHT22;24910;53.248;-6.134;2023-09-08T15:20:59;23.60;83.00
38684;DHT22;24910;53.248;-6.134;2023-09-08T15:23:28;23.60;82.90
38684;DHT22;24910;53.248;-6.134;2023-09-08T15:25:59;23.60;83.80
38684;DHT22;24910;53.248;-6.134;2023-09-08T15:28:28;23.60;83.00
38684;DHT22;24910;53.248;-6.134;2023-09-08T15:30:57;23.60;83.00
38684;DHT22;24910;53.248;-6.134;2023-09-08T15:33:27;23.50;83.00
38684;DHT22;24910;53.248;-6.134;2023-09-08T15:35:57;23.50;83.20